createdAt,value
2023-04-26T00:00:00.016Z,4.52
2023-04-26T00:02:45.954Z,4.82
2023-04-26T00:05:32.454Z,5.01
2023-04-26T00:08:20.460Z,5.15
2023-04-26T00:11:06.334Z,5.21
2023-04-26T00:13:52.207Z,5.25
2023-04-26T00:16:37.992Z,4.61
2023-04-26T00:19:23.758Z,5.35
2023-04-26T00:22:09.601Z,5.60
2023-04-26T00:24:55.417Z,5.12
2023-04-26T00:27:41.171Z,5.45
2023-04-26T00:30:27.121Z,5.56
2023-04-26T00:33:13.041Z,5.45
2023-04-26T00:35:59.022Z,5.21
2023-04-26T00:38:44.850Z,5.41
2023-04-26T00:41:30.730Z,5.37
2023-04-26T00:44:16.756Z,5.46
2023-04-26T00:47:02.591Z,5.89
2023-04-26T00:49:48.467Z,5.90
2023-04-26T00:52:34.295Z,5.77
2023-04-26T00:55:20.076Z,5.56
2023-04-26T00:58:06.060Z,5.83
2023-04-26T01:00:52.119Z,5.68
2023-04-26T01:03:38.547Z,5.67
2023-04-26T01:06:24.861Z,5.67
2023-04-26T01:09:10.610Z,5.96
2023-04-26T01:11:56.514Z,6.06
2023-04-26T01:14:42.345Z,6.03
2023-04-26T01:17:28.172Z,5.92
2023-04-26T01:20:14.148Z,6.07
2023-04-26T01:23:00.027Z,5.91
2023-04-26T01:25:45.802Z,6.05
2023-04-26T01:28:31.551Z,6.04
2023-04-26T01:31:17.512Z,6.53
2023-04-26T01:34:03.443Z,6.60
2023-04-26T01:36:49.204Z,6.39
2023-04-26T01:39:35.316Z,6.33
2023-04-26T01:42:21.304Z,6.82
2023-04-26T01:45:07.044Z,6.23
2023-04-26T01:47:53.072Z,6.02
2023-04-26T01:50:39.000Z,6.37
2023-04-26T01:53:24.815Z,5.84
2023-04-26T01:56:10.690Z,5.46
2023-04-26T01:58:56.574Z,5.36
2023-04-26T02:01:42.474Z,4.92
2023-04-26T02:04:28.377Z,5.02
2023-04-26T02:07:14.269Z,5.01
2023-04-26T02:10:00.227Z,4.83
2023-04-26T02:12:45.964Z,4.75
2023-04-26T02:15:31.996Z,4.38
2023-04-26T02:18:17.921Z,4.24
2023-04-26T02:21:03.808Z,3.82
2023-04-26T02:23:49.828Z,4.13
2023-04-26T02:26:35.670Z,3.83
2023-04-26T02:29:32.624Z,3.75
2023-04-26T02:32:27.532Z,3.62
2023-04-26T02:35:13.545Z,3.61
2023-04-26T02:37:59.418Z,3.55
2023-04-26T02:40:45.292Z,3.50
2023-04-26T02:43:31.222Z,3.53
2023-04-26T02:46:17.537Z,3.68
2023-04-26T02:49:03.670Z,3.43
2023-04-26T02:51:49.485Z,3.47
2023-04-26T02:54:35.471Z,3.39
2023-04-26T02:57:21.394Z,3.32
2023-04-26T03:00:07.228Z,3.46
2023-04-26T03:02:53.380Z,3.53
2023-04-26T03:05:39.614Z,3.54
2023-04-26T03:08:25.445Z,3.63
2023-04-26T03:11:11.316Z,3.43
2023-04-26T03:13:57.040Z,3.39
2023-04-26T03:16:43.247Z,3.30
2023-04-26T03:19:29.511Z,3.27
2023-04-26T03:22:15.278Z,3.40
2023-04-26T03:25:01.208Z,3.67
2023-04-26T03:27:46.952Z,3.50
2023-04-26T03:30:32.963Z,3.44
2023-04-26T03:33:18.811Z,3.58
2023-04-26T03:36:04.613Z,3.39
2023-04-26T03:38:50.713Z,3.64
2023-04-26T03:41:37.055Z,3.85
2023-04-26T03:44:22.863Z,3.42
2023-04-26T03:47:08.755Z,3.48
2023-04-26T03:49:54.622Z,3.34
2023-04-26T03:52:40.465Z,3.24
2023-04-26T03:55:26.420Z,3.63
2023-04-26T03:58:12.171Z,3.43
2023-04-26T04:00:58.026Z,3.61
2023-04-26T04:03:44.063Z,3.43
2023-04-26T04:06:30.337Z,3.59
2023-04-26T04:09:16.205Z,3.51
2023-04-26T04:12:01.997Z,3.35
2023-04-26T04:14:47.942Z,3.53
2023-04-26T04:17:35.023Z,2.90
2023-04-26T04:20:21.616Z,2.81
2023-04-26T04:23:07.795Z,3.15
2023-04-26T04:25:53.623Z,3.12
2023-04-26T04:28:39.413Z,3.38
2023-04-26T04:31:25.328Z,3.75
2023-04-26T04:34:11.212Z,3.85
2023-04-26T04:36:57.120Z,3.40
2023-04-26T04:39:43.078Z,3.66
2023-04-26T04:42:29.096Z,3.21
2023-04-26T04:45:14.965Z,3.12
2023-04-26T04:48:00.774Z,3.46
2023-04-26T04:50:46.753Z,3.44
2023-04-26T04:53:32.747Z,3.36
2023-04-26T04:56:18.580Z,3.22
2023-04-26T04:59:04.576Z,3.35
2023-04-26T05:01:50.559Z,3.44
2023-04-26T05:04:36.431Z,3.16
2023-04-26T05:07:24.361Z,3.92
2023-04-26T05:10:10.842Z,3.88
2023-04-26T05:12:57.829Z,3.85
2023-04-26T05:15:44.012Z,3.64
2023-04-26T05:18:29.974Z,4.24
2023-04-26T05:21:15.735Z,4.68
2023-04-26T05:24:01.741Z,4.91
2023-04-26T05:26:47.629Z,5.27
2023-04-26T05:29:33.593Z,4.18
2023-04-26T05:32:19.501Z,3.95
2023-04-26T05:35:05.274Z,3.60
2023-04-26T05:37:51.229Z,3.92
2023-04-26T05:40:37.292Z,3.67
2023-04-26T05:43:23.171Z,3.84
2023-04-26T05:46:09.172Z,3.89
2023-04-26T05:48:55.076Z,3.87
2023-04-26T05:51:40.908Z,3.89
2023-04-26T05:54:26.795Z,4.02
2023-04-26T05:57:12.655Z,3.68
2023-04-26T05:59:58.564Z,3.81
2023-04-26T06:02:44.613Z,3.87
2023-04-26T06:05:32.887Z,3.84
2023-04-26T06:08:18.945Z,3.83
2023-04-26T06:11:04.816Z,3.78
2023-04-26T06:13:50.765Z,3.74
2023-04-26T06:16:37.513Z,3.44
2023-04-26T06:19:23.367Z,3.38
2023-04-26T06:22:09.347Z,3.52
2023-04-26T06:24:55.443Z,3.55
2023-04-26T06:27:41.430Z,3.76
2023-04-26T06:30:27.585Z,3.83
2023-04-26T06:33:13.913Z,3.83
2023-04-26T06:35:59.675Z,3.88
2023-04-26T06:38:45.622Z,4.10
2023-04-26T06:41:31.445Z,4.00
2023-04-26T06:44:17.255Z,3.96
2023-04-26T06:47:03.477Z,3.40
2023-04-26T06:49:49.556Z,3.55
2023-04-26T06:52:35.394Z,2.89
2023-04-26T06:55:21.401Z,3.21
2023-04-26T06:58:07.327Z,3.13
2023-04-26T07:00:53.158Z,2.94
2023-04-26T07:03:39.219Z,2.83
2023-04-26T07:06:25.274Z,3.06
2023-04-26T07:09:11.294Z,3.03
2023-04-26T07:11:57.175Z,2.91
2023-04-26T07:14:43.229Z,3.19
2023-04-26T07:17:29.259Z,3.29
2023-04-26T07:20:15.703Z,3.25
2023-04-26T07:23:02.018Z,3.12
2023-04-26T07:25:48.007Z,3.49
2023-04-26T07:28:33.841Z,3.82
2023-04-26T07:31:19.792Z,3.88
2023-04-26T07:34:05.676Z,4.35
2023-04-26T07:36:51.685Z,3.98
2023-04-26T07:39:37.550Z,4.01
2023-04-26T07:42:23.393Z,4.52
2023-04-26T07:45:09.293Z,11.45
2023-04-26T07:47:55.378Z,4.00
2023-04-26T07:50:41.572Z,3.92
2023-04-26T07:53:27.436Z,3.85
2023-04-26T07:56:13.328Z,4.13
2023-04-26T07:59:01.313Z,5.12
2023-04-26T08:01:47.431Z,5.35
2023-04-26T08:04:33.391Z,5.40
2023-04-26T08:07:19.710Z,5.61
2023-04-26T08:10:05.601Z,5.83
2023-04-26T08:12:51.356Z,6.00
2023-04-26T08:15:37.289Z,6.39
2023-04-26T08:18:23.269Z,6.65
2023-04-26T08:21:09.179Z,6.33
2023-04-26T08:23:55.338Z,6.29
2023-04-26T08:26:41.532Z,6.39
2023-04-26T08:29:27.412Z,6.43
2023-04-26T08:32:13.254Z,5.97
2023-04-26T08:34:59.132Z,6.19
2023-04-26T08:37:45.076Z,6.56
2023-04-26T08:40:30.844Z,6.06
2023-04-26T08:43:16.856Z,6.65
2023-04-26T08:46:02.706Z,6.01
2023-04-26T08:48:48.600Z,6.51
2023-04-26T08:51:34.664Z,6.32
2023-04-26T08:54:20.529Z,6.38
2023-04-26T08:57:06.465Z,6.48
2023-04-26T08:59:52.456Z,6.20
2023-04-26T09:02:41.222Z,6.86
2023-04-26T09:05:27.487Z,7.04
2023-04-26T09:08:13.344Z,6.64
2023-04-26T09:10:59.195Z,5.79
2023-04-26T09:13:45.377Z,5.73
2023-04-26T09:16:31.669Z,5.84
2023-04-26T09:19:17.473Z,5.62
2023-04-26T09:22:03.373Z,5.21
2023-04-26T09:24:51.388Z,5.24
2023-04-26T09:27:37.120Z,5.00
2023-04-26T09:30:23.032Z,5.06
2023-04-26T09:33:08.883Z,4.73
2023-04-26T09:35:54.866Z,4.49
2023-04-26T09:38:40.860Z,4.56
2023-04-26T09:41:26.691Z,4.93
2023-04-26T09:44:12.610Z,4.03
2023-04-26T09:46:58.650Z,3.58
2023-04-26T09:49:44.594Z,4.16
2023-04-26T09:52:30.418Z,4.15
2023-04-26T09:55:31.092Z,3.94
2023-04-26T09:58:20.593Z,4.33
2023-04-26T10:01:06.434Z,4.33
2023-04-26T10:03:52.346Z,3.62
2023-04-26T10:06:38.618Z,3.89
2023-04-26T10:09:24.778Z,3.55
2023-04-26T10:12:10.594Z,3.41
2023-04-26T10:14:56.557Z,3.86
2023-04-26T10:17:42.374Z,4.36
2023-04-26T10:20:28.296Z,4.09
2023-04-26T10:23:17.115Z,3.60
2023-04-26T10:26:03.197Z,3.64
2023-04-26T10:28:49.786Z,3.22
2023-04-26T10:31:37.578Z,3.47
2023-04-26T10:34:23.532Z,2.76
2023-04-26T10:37:09.330Z,2.92
2023-04-26T10:39:55.314Z,3.01
2023-04-26T10:42:41.715Z,3.02
2023-04-26T10:45:27.646Z,2.82
2023-04-26T10:48:13.472Z,2.56
2023-04-26T10:50:59.385Z,2.72
2023-04-26T10:53:45.384Z,3.02
2023-04-26T10:56:31.342Z,2.86
2023-04-26T10:59:36.343Z,2.72
2023-04-26T11:02:23.043Z,2.60
2023-04-26T11:05:09.018Z,2.73
2023-04-26T11:07:54.825Z,2.32
2023-04-26T11:10:42.732Z,3.14
2023-04-26T11:13:28.775Z,2.60
2023-04-26T11:16:14.765Z,2.53
2023-04-26T11:19:00.721Z,2.54
2023-04-26T11:21:48.753Z,2.56
2023-04-26T11:24:34.529Z,2.86
2023-04-26T11:27:20.588Z,2.64
2023-04-26T11:30:06.574Z,2.69
2023-04-26T11:32:52.380Z,2.83
2023-04-26T11:35:38.270Z,3.02
2023-04-26T11:38:24.149Z,3.07
2023-04-26T11:41:09.966Z,3.16
2023-04-26T11:43:55.937Z,3.27
2023-04-26T11:46:41.822Z,2.88
2023-04-26T11:49:27.822Z,3.07
2023-04-26T11:52:13.811Z,3.06
2023-04-26T11:54:59.723Z,2.86
2023-04-26T11:57:45.652Z,2.87
2023-04-26T12:00:31.564Z,3.16
2023-04-26T12:03:17.628Z,2.78
2023-04-26T12:06:03.694Z,3.39
2023-04-26T12:08:49.517Z,3.50
2023-04-26T12:11:35.509Z,3.03
2023-04-26T12:14:21.440Z,3.22
2023-04-26T12:17:07.268Z,3.34
2023-04-26T12:19:53.176Z,3.06
2023-04-26T12:22:39.133Z,2.90
2023-04-26T12:25:25.108Z,2.79
2023-04-26T12:28:11.279Z,2.91
2023-04-26T12:30:57.515Z,2.99
2023-04-26T12:33:43.398Z,2.98
2023-04-26T12:36:29.610Z,2.91
2023-04-26T12:39:15.525Z,3.21
2023-04-26T12:42:01.324Z,2.93
2023-04-26T12:44:47.261Z,2.89
2023-04-26T12:47:33.085Z,2.75
2023-04-26T12:50:18.957Z,2.80
2023-04-26T12:53:04.690Z,3.32
2023-04-26T12:55:50.681Z,2.89
2023-04-26T12:58:36.409Z,2.90
2023-04-26T13:01:22.336Z,2.92
2023-04-26T13:04:08.870Z,2.98
2023-04-26T13:06:55.227Z,3.52
2023-04-26T13:09:41.048Z,3.29
2023-04-26T13:12:26.842Z,3.03
2023-04-26T13:15:12.617Z,2.77
2023-04-26T13:17:58.628Z,3.04
2023-04-26T13:20:44.472Z,3.18
2023-04-26T13:23:30.386Z,3.46
2023-04-26T13:26:18.461Z,3.08
2023-04-26T13:29:04.696Z,2.76
2023-04-26T13:31:50.579Z,3.00
2023-04-26T13:34:36.485Z,2.87
2023-04-26T13:37:24.433Z,2.98
2023-04-26T13:40:10.228Z,3.27
2023-04-26T13:42:56.181Z,3.01
2023-04-26T13:45:41.964Z,2.74
2023-04-26T13:48:27.788Z,2.45
2023-04-26T13:51:13.639Z,2.55
2023-04-26T13:53:59.506Z,2.61
2023-04-26T13:56:45.328Z,2.42
2023-04-26T13:59:33.268Z,2.20
2023-04-26T14:02:19.289Z,2.42
2023-04-26T14:05:05.790Z,2.59
2023-04-26T14:07:54.860Z,2.53
2023-04-26T14:10:40.932Z,2.59
2023-04-26T14:13:27.319Z,2.48
2023-04-26T14:16:13.310Z,2.22
2023-04-26T14:18:59.130Z,2.28
2023-04-26T14:21:45.033Z,2.20
2023-04-26T14:24:31.061Z,2.75
2023-04-26T14:27:16.778Z,2.36
2023-04-26T14:30:02.663Z,2.25
2023-04-26T14:32:48.640Z,2.15
2023-04-26T14:35:34.956Z,2.12
2023-04-26T14:38:20.926Z,2.41
2023-04-26T14:41:06.730Z,2.52
2023-04-26T14:43:52.531Z,2.46
2023-04-26T14:46:38.306Z,2.35
2023-04-26T14:49:24.220Z,2.83
2023-04-26T14:52:10.505Z,2.29
2023-04-26T14:54:56.782Z,2.23
2023-04-26T14:57:42.940Z,2.09
2023-04-26T15:00:28.805Z,2.20
2023-04-26T15:03:14.681Z,1.98
2023-04-26T15:06:00.930Z,2.48
2023-04-26T15:08:46.649Z,3.52
2023-04-26T15:11:32.679Z,2.40
2023-04-26T15:14:18.540Z,2.39
2023-04-26T15:17:06.497Z,2.32
2023-04-26T15:19:52.387Z,2.37
2023-04-26T15:22:39.075Z,2.36
2023-04-26T15:25:25.201Z,2.28
2023-04-26T15:28:11.109Z,2.16
2023-04-26T15:30:57.024Z,2.38
2023-04-26T15:33:42.828Z,2.32
2023-04-26T15:36:28.585Z,2.26
2023-04-26T15:39:14.254Z,2.32
2023-04-26T15:41:59.965Z,2.37
2023-04-26T15:44:45.809Z,2.34
2023-04-26T15:47:31.676Z,2.13
2023-04-26T15:50:17.603Z,2.21
2023-04-26T15:53:05.461Z,2.36
2023-04-26T15:55:51.242Z,2.41
2023-04-26T15:58:40.382Z,2.30
2023-04-26T16:01:27.667Z,2.29
2023-04-26T16:04:13.670Z,2.51
2023-04-26T16:06:59.853Z,2.68
2023-04-26T16:09:45.746Z,2.54
2023-04-26T16:12:31.414Z,2.46
2023-04-26T16:15:17.445Z,2.51
2023-04-26T16:18:03.383Z,2.43
2023-04-26T16:20:49.308Z,2.52
2023-04-26T16:23:35.255Z,2.65
2023-04-26T16:26:21.028Z,2.51
2023-04-26T16:29:07.047Z,2.80
2023-04-26T16:31:52.985Z,2.93
2023-04-26T16:34:38.874Z,3.15
2023-04-26T16:37:24.945Z,2.90
2023-04-26T16:40:10.703Z,3.20
2023-04-26T16:42:56.754Z,3.25
2023-04-26T16:45:42.968Z,3.59
2023-04-26T16:48:28.872Z,3.32
2023-04-26T16:51:14.819Z,3.28
2023-04-26T16:54:00.717Z,3.57
2023-04-26T16:56:46.512Z,3.42
2023-04-26T16:59:32.337Z,3.41
2023-04-26T17:02:18.315Z,3.28
2023-04-26T17:05:04.654Z,3.02
2023-04-26T17:07:50.972Z,3.47
2023-04-26T17:10:36.778Z,3.29
2023-04-26T17:13:22.749Z,3.20
2023-04-26T17:16:08.679Z,3.32
2023-04-26T17:18:54.497Z,3.28
2023-04-26T17:21:40.438Z,3.12
2023-04-26T17:24:26.102Z,3.01
2023-04-26T17:27:12.141Z,3.21
2023-04-26T17:29:58.083Z,3.38
2023-04-26T17:32:44.556Z,3.13
2023-04-26T17:35:31.491Z,3.19
2023-04-26T17:38:17.564Z,3.05
2023-04-26T17:41:03.484Z,3.10
2023-04-26T17:43:49.473Z,2.84
2023-04-26T17:46:35.366Z,3.40
2023-04-26T17:49:21.308Z,3.32
2023-04-26T17:52:07.153Z,3.62
2023-04-26T17:54:52.886Z,3.81
2023-04-26T17:57:38.701Z,3.81
2023-04-26T18:00:24.530Z,3.88
2023-04-26T18:03:10.556Z,3.79
2023-04-26T18:05:56.488Z,3.98
2023-04-26T18:08:42.273Z,4.81
2023-04-26T18:11:28.129Z,4.71
2023-04-26T18:14:14.036Z,4.93
2023-04-26T18:16:59.929Z,3.70
2023-04-26T18:19:45.727Z,3.48
2023-04-26T18:22:31.671Z,3.31
2023-04-26T18:25:17.496Z,2.97
2023-04-26T18:28:03.545Z,3.28
2023-04-26T18:30:49.333Z,3.13
2023-04-26T18:33:35.298Z,3.57
2023-04-26T18:36:21.158Z,3.56
2023-04-26T18:39:07.060Z,3.60
2023-04-26T18:41:52.850Z,3.70
2023-04-26T18:44:38.689Z,3.90
2023-04-26T18:47:24.722Z,3.81
2023-04-26T18:50:10.753Z,3.84
2023-04-26T18:52:56.688Z,3.33
2023-04-26T18:55:42.565Z,3.63
2023-04-26T18:58:28.789Z,3.64
2023-04-26T19:01:14.739Z,3.52
2023-04-26T19:04:00.796Z,3.47
2023-04-26T19:06:47.005Z,3.57
2023-04-26T19:09:42.788Z,3.27
2023-04-26T19:12:36.822Z,2.98
2023-04-26T19:15:22.746Z,2.86
2023-04-26T19:18:08.717Z,2.59
2023-04-26T19:20:54.638Z,2.67
2023-04-26T19:23:40.456Z,2.59
2023-04-26T19:26:26.302Z,2.81
2023-04-26T19:29:12.416Z,2.76
2023-04-26T19:31:58.312Z,2.74
2023-04-26T19:34:44.418Z,2.89
2023-04-26T19:37:30.290Z,2.90
2023-04-26T19:40:16.552Z,2.72
2023-04-26T19:43:02.801Z,3.13
2023-04-26T19:45:48.556Z,3.05
2023-04-26T19:48:34.414Z,3.13
2023-04-26T19:51:20.347Z,3.00
2023-04-26T19:54:06.198Z,3.09
2023-04-26T19:56:52.204Z,2.90
2023-04-26T19:59:38.023Z,2.62
2023-04-26T20:02:23.996Z,2.64
2023-04-26T20:05:10.343Z,2.77
2023-04-26T20:07:56.224Z,2.97
2023-04-26T20:10:42.463Z,2.95
2023-04-26T20:13:28.417Z,2.77
2023-04-26T20:16:14.403Z,3.02
2023-04-26T20:19:00.305Z,3.16
2023-04-26T20:21:46.117Z,3.01
2023-04-26T20:24:31.996Z,2.67
2023-04-26T20:27:17.823Z,2.61
2023-04-26T20:30:03.693Z,2.65
2023-04-26T20:32:49.777Z,2.46
2023-04-26T20:35:35.770Z,2.67
2023-04-26T20:38:21.694Z,2.90
2023-04-26T20:41:07.457Z,2.70
2023-04-26T20:43:53.284Z,2.41
2023-04-26T20:46:39.169Z,2.51
2023-04-26T20:49:25.152Z,2.66
2023-04-26T20:52:11.061Z,2.48
2023-04-26T20:54:57.120Z,2.62
2023-04-26T20:57:42.925Z,2.37
2023-04-26T21:00:28.882Z,2.33
2023-04-26T21:03:14.915Z,2.63
2023-04-26T21:06:01.113Z,2.58
2023-04-26T21:08:47.075Z,2.50
2023-04-26T21:11:32.913Z,2.73
2023-04-26T21:14:18.791Z,2.57
2023-04-26T21:17:04.701Z,2.64
2023-04-26T21:19:50.444Z,2.45
2023-04-26T21:22:36.361Z,2.57
2023-04-26T21:25:22.377Z,2.78
2023-04-26T21:28:08.275Z,2.76
2023-04-26T21:30:54.192Z,2.98
2023-04-26T21:33:40.124Z,2.94
2023-04-26T21:36:25.988Z,3.13
2023-04-26T21:39:11.982Z,3.59
2023-04-26T21:41:58.188Z,3.30
2023-04-26T21:44:44.157Z,3.26
2023-04-26T21:47:30.183Z,3.27
2023-04-26T21:50:15.989Z,3.08
2023-04-26T21:53:01.918Z,2.90
2023-04-26T21:55:47.751Z,2.52
2023-04-26T21:58:33.634Z,2.35
2023-04-26T22:01:19.642Z,2.49
2023-04-26T22:04:05.883Z,2.60
2023-04-26T22:06:51.840Z,2.78
2023-04-26T22:09:37.804Z,2.50
2023-04-26T22:12:23.612Z,2.49
2023-04-26T22:15:09.670Z,2.64
2023-04-26T22:17:55.630Z,2.59
2023-04-26T22:20:41.495Z,2.82
2023-04-26T22:23:27.366Z,2.93
2023-04-26T22:26:13.092Z,2.92
2023-04-26T22:28:58.928Z,2.84
2023-04-26T22:31:44.870Z,2.54
2023-04-26T22:34:30.758Z,2.74
2023-04-26T22:37:21.092Z,2.81
2023-04-26T22:40:07.748Z,2.93
2023-04-26T22:42:53.663Z,3.08
2023-04-26T22:45:39.551Z,2.77
2023-04-26T22:48:25.430Z,3.00
2023-04-26T22:51:11.340Z,2.84
2023-04-26T22:53:57.180Z,2.99
2023-04-26T22:56:43.034Z,2.61
2023-04-26T22:59:28.919Z,2.82
2023-04-26T23:02:14.845Z,2.56
2023-04-26T23:05:00.586Z,2.61
2023-04-26T23:07:46.650Z,2.63
2023-04-26T23:10:32.571Z,2.48
2023-04-26T23:13:18.502Z,2.40
2023-04-26T23:16:04.490Z,2.59
2023-04-26T23:18:50.333Z,2.49
2023-04-26T23:21:36.296Z,2.70
2023-04-26T23:24:22.097Z,2.59
2023-04-26T23:27:07.832Z,2.46
2023-04-26T23:29:53.779Z,2.68
2023-04-26T23:32:39.678Z,2.74
2023-04-26T23:35:25.517Z,2.74
2023-04-26T23:38:11.476Z,2.74
2023-04-26T23:40:57.347Z,2.79
2023-04-26T23:43:43.086Z,2.93
2023-04-26T23:46:29.122Z,2.69
2023-04-26T23:49:15.261Z,2.84
2023-04-26T23:52:01.443Z,2.74
2023-04-26T23:54:47.168Z,3.18
2023-04-26T23:57:33.001Z,2.88
